createdAt,value
2022-10-09T11:48:12.430Z,13.20
2022-10-09T11:51:02.540Z,12.00
2022-10-09T11:53:41.511Z,11.02
2022-10-09T11:56:20.149Z,11.02
2022-10-09T11:59:11.588Z,10.77
2022-10-09T12:01:41.420Z,10.73
2022-10-09T12:04:27.743Z,9.77
2022-10-09T12:07:09.390Z,8.38
2022-10-09T12:09:50.432Z,7.85
2022-10-09T12:12:17.185Z,7.13
2022-10-09T12:14:59.819Z,7.03
2022-10-09T12:17:26.503Z,6.65
2022-10-09T12:20:21.451Z,6.38
2022-10-09T12:25:48.171Z,6.30
2022-10-09T12:28:53.544Z,5.50
2022-10-09T12:31:25.564Z,6.32
2022-10-09T12:34:04.410Z,6.10
2022-10-09T12:36:31.821Z,6.18
2022-10-09T12:39:21.485Z,6.38
2022-10-09T12:42:01.557Z,5.53
2022-10-09T12:44:35.828Z,6.05
2022-10-09T12:47:12.580Z,5.68
2022-10-09T12:49:39.414Z,6.00
2022-10-09T12:52:21.457Z,6.15
2022-10-09T12:54:48.211Z,6.63
2022-10-09T12:57:27.784Z,6.25
2022-10-09T12:59:55.345Z,6.13
2022-10-09T13:02:29.470Z,6.45
2022-10-09T13:05:03.070Z,6.60
2022-10-09T13:07:39.506Z,6.57
2022-10-09T13:10:26.361Z,6.38
2022-10-09T13:12:57.063Z,7.22
2022-10-09T13:15:42.338Z,6.88
2022-10-09T13:18:29.530Z,6.60
2022-10-09T13:21:34.347Z,8.10
2022-10-09T13:24:19.377Z,6.53
2022-10-09T13:26:52.412Z,6.35
2022-10-09T13:29:19.209Z,6.00
2022-10-09T13:31:46.022Z,5.97
2022-10-09T13:34:20.431Z,5.78
2022-10-09T13:36:47.426Z,5.75
2022-10-09T13:39:15.532Z,5.78
2022-10-09T13:41:50.542Z,5.65
2022-10-09T13:44:24.319Z,5.88
2022-10-09T13:46:51.128Z,5.88
2022-10-09T13:49:18.038Z,5.97
2022-10-09T13:51:51.335Z,5.85
2022-10-09T13:54:18.130Z,6.20
2022-10-09T13:56:52.472Z,6.05
2022-10-09T13:59:19.406Z,6.25
2022-10-09T14:01:46.288Z,6.05
2022-10-09T14:04:19.343Z,6.38
2022-10-09T14:06:46.346Z,5.70
2022-10-09T14:09:19.404Z,6.10
2022-10-09T14:11:47.184Z,7.05
2022-10-09T14:14:34.304Z,6.40
2022-10-09T14:17:01.219Z,6.10
2022-10-09T14:19:34.271Z,6.53
2022-10-09T14:22:07.451Z,5.90
2022-10-09T14:24:34.434Z,6.20
2022-10-09T14:27:01.201Z,6.18
2022-10-09T14:29:34.570Z,6.72
2022-10-09T14:32:08.350Z,6.38
2022-10-09T14:34:35.092Z,6.70
2022-10-09T14:37:07.350Z,6.10
2022-10-09T14:39:50.288Z,6.90
2022-10-09T14:42:17.200Z,6.50
2022-10-09T14:44:44.077Z,6.80
2022-10-09T14:47:17.231Z,6.88
2022-10-09T14:49:50.320Z,6.90
2022-10-09T14:52:17.084Z,6.85
2022-10-09T14:54:43.800Z,6.82
2022-10-09T14:57:17.582Z,7.20
2022-10-09T14:59:44.525Z,6.88
2022-10-09T15:02:27.400Z,6.78
2022-10-09T15:05:01.303Z,7.45
2022-10-09T15:07:28.510Z,7.15
2022-10-09T15:09:57.047Z,6.90
2022-10-09T15:12:30.623Z,7.03
2022-10-09T15:15:21.029Z,7.43
2022-10-09T15:17:54.421Z,7.18
2022-10-09T15:20:21.212Z,7.07
2022-10-09T15:22:47.914Z,7.55
2022-10-09T15:25:23.314Z,7.20
2022-10-09T15:27:53.859Z,7.22
2022-10-09T15:30:21.302Z,7.32
2022-10-09T15:32:54.348Z,7.60
2022-10-09T15:35:28.497Z,7.38
2022-10-09T15:40:35.194Z,7.15
2022-10-09T15:43:08.521Z,7.57
2022-10-09T15:45:42.140Z,7.77
2022-10-09T15:48:24.320Z,7.07
2022-10-09T15:51:00.266Z,6.90
2022-10-09T15:53:33.355Z,8.00
2022-10-09T15:56:12.160Z,7.65
2022-10-09T15:58:45.455Z,7.90
2022-10-09T16:01:21.332Z,7.60
2022-10-09T16:03:48.994Z,7.90
2022-10-09T16:06:25.173Z,7.80
2022-10-09T16:08:55.886Z,8.90
2022-10-09T16:11:29.122Z,8.45
2022-10-09T16:14:02.497Z,8.63
2022-10-09T16:16:44.874Z,8.37
2022-10-09T16:19:18.199Z,9.02
2022-10-09T16:21:51.215Z,9.17
2022-10-09T16:24:19.278Z,9.15
2022-10-09T16:26:52.219Z,9.32
2022-10-09T16:29:19.122Z,9.55
2022-10-09T16:31:45.803Z,10.40
2022-10-09T16:34:19.248Z,10.25
2022-10-09T16:36:46.045Z,10.43
2022-10-09T16:39:12.780Z,10.55
2022-10-09T16:41:46.104Z,11.30
2022-10-09T16:44:21.299Z,10.93
2022-10-09T16:46:47.940Z,11.18
2022-10-09T16:49:25.067Z,11.45
2022-10-09T16:51:52.018Z,11.55
2022-10-09T16:54:25.443Z,10.50
2022-10-09T16:56:59.168Z,11.70
2022-10-09T16:59:25.951Z,11.43
2022-10-09T17:01:52.964Z,11.63
2022-10-09T17:04:26.095Z,11.27
2022-10-09T17:07:00.190Z,12.15
2022-10-09T17:09:36.106Z,12.68
2022-10-09T17:12:04.650Z,12.90
2022-10-09T17:14:31.734Z,11.57
2022-10-09T17:16:58.450Z,12.60
2022-10-09T17:19:25.268Z,12.25
2022-10-09T17:21:52.319Z,11.82
2022-10-09T17:24:19.656Z,12.32
2022-10-09T17:26:46.750Z,12.63
2022-10-09T17:29:14.540Z,12.10
2022-10-09T17:31:41.721Z,11.93
2022-10-09T17:34:15.181Z,11.57
2022-10-09T17:36:44.292Z,12.70
2022-10-09T17:39:14.958Z,10.77
2022-10-09T17:41:44.631Z,12.07
2022-10-09T17:44:11.451Z,12.05
2022-10-09T17:46:38.310Z,10.85
2022-10-09T17:49:12.002Z,11.32
2022-10-09T17:51:40.355Z,11.77
2022-10-09T17:54:12.410Z,10.82
2022-10-09T17:56:42.644Z,12.70
2022-10-09T17:59:09.999Z,12.27
2022-10-09T18:01:37.503Z,12.23
2022-10-09T18:04:04.372Z,12.45
2022-10-09T18:06:33.961Z,13.00
2022-10-09T18:09:01.328Z,13.20
2022-10-09T18:11:28.683Z,12.13
2022-10-09T18:13:56.497Z,12.48
2022-10-09T18:16:36.489Z,13.18
2022-10-09T18:19:13.067Z,12.10
2022-10-09T18:21:42.974Z,11.55
2022-10-09T18:24:10.182Z,12.18
2022-10-09T18:26:37.974Z,12.23
2022-10-09T18:29:05.058Z,11.52
2022-10-09T18:31:32.106Z,10.88
2022-10-09T18:34:00.096Z,12.23
2022-10-09T18:36:34.698Z,12.90
2022-10-09T18:39:08.818Z,13.00
2022-10-09T18:41:53.717Z,13.27
2022-10-09T18:44:22.045Z,13.20
2022-10-09T18:47:20.353Z,13.52
2022-10-09T18:49:55.062Z,13.98
2022-10-09T18:52:45.502Z,13.70
2022-10-09T18:55:15.263Z,13.88
2022-10-09T18:57:47.709Z,15.05
2022-10-09T19:00:16.088Z,14.80
2022-10-09T19:02:42.927Z,14.20
2022-10-09T19:05:10.019Z,15.23
2022-10-09T19:07:36.784Z,14.65
2022-10-09T19:10:05.361Z,14.02
2022-10-09T19:12:32.666Z,13.98
2022-10-09T19:14:59.374Z,15.05
2022-10-09T19:17:26.295Z,15.25
2022-10-09T19:19:52.934Z,13.25
2022-10-09T19:22:23.796Z,13.65
2022-10-09T19:24:51.199Z,13.70
2022-10-09T19:27:17.842Z,15.02
2022-10-09T19:29:44.438Z,12.88
2022-10-09T19:32:11.644Z,15.90
2022-10-09T19:34:38.450Z,15.18
2022-10-09T19:39:36.938Z,15.45
2022-10-09T19:42:03.657Z,22.25
2022-10-09T19:44:30.680Z,16.45
2022-10-09T19:46:57.330Z,16.02
2022-10-09T19:49:24.141Z,17.83
2022-10-09T19:51:51.069Z,15.93
2022-10-09T19:54:17.742Z,16.75
2022-10-09T19:56:44.416Z,18.58
2022-10-09T19:59:11.270Z,17.05
2022-10-09T20:01:40.194Z,17.05
2022-10-09T20:04:10.732Z,16.05
2022-10-09T20:06:39.519Z,16.58
2022-10-09T20:09:07.696Z,15.88
2022-10-09T20:11:35.394Z,15.88
2022-10-09T20:14:02.915Z,15.70
2022-10-09T20:16:32.252Z,17.67
2022-10-09T20:19:00.227Z,17.80
2022-10-09T20:21:27.719Z,18.38
2022-10-09T20:23:56.641Z,17.35
2022-10-09T20:26:23.550Z,18.23
2022-10-09T20:28:53.838Z,18.35
2022-10-09T20:31:25.621Z,18.73
2022-10-09T20:33:54.013Z,17.70
2022-10-09T20:36:35.210Z,16.75
2022-10-09T20:39:05.373Z,16.50
2022-10-09T20:41:32.646Z,15.90
2022-10-09T20:44:01.504Z,14.82
2022-10-09T20:46:29.951Z,16.90
2022-10-09T20:48:57.037Z,18.88
2022-10-09T20:51:24.988Z,16.25
2022-10-09T20:53:56.781Z,14.30
2022-10-09T20:56:25.648Z,15.25
2022-10-09T20:58:52.387Z,12.93
2022-10-09T21:01:19.655Z,14.38
2022-10-09T21:03:46.830Z,13.25
2022-10-09T21:06:16.712Z,15.02
2022-10-09T21:08:43.373Z,14.18
2022-10-09T21:11:13.226Z,14.73
2022-10-09T21:13:40.681Z,14.70
2022-10-09T21:16:09.520Z,14.82
2022-10-09T21:18:37.742Z,16.73
2022-10-09T21:21:06.846Z,14.38
2022-10-09T21:23:33.747Z,13.57
2022-10-09T21:26:00.728Z,16.08
2022-10-09T21:28:27.721Z,14.88
2022-10-09T21:30:54.632Z,15.27
2022-10-09T21:33:22.111Z,13.98
2022-10-09T21:35:51.779Z,17.15
2022-10-09T21:38:21.269Z,15.38
2022-10-09T21:40:49.481Z,16.77
2022-10-09T21:43:17.056Z,16.05
2022-10-09T21:45:44.749Z,16.95
2022-10-09T21:48:15.672Z,16.48
2022-10-09T21:50:42.494Z,17.17
2022-10-09T21:53:09.141Z,24.02
2022-10-09T21:55:37.905Z,23.95
2022-10-09T21:58:05.293Z,22.20
2022-10-09T22:00:32.022Z,22.50
2022-10-09T22:02:58.897Z,21.80
2022-10-09T22:05:25.553Z,19.95
2022-10-09T22:07:52.151Z,19.80
2022-10-09T22:10:19.017Z,18.48
2022-10-09T22:12:45.635Z,17.85
2022-10-09T22:15:12.477Z,16.60
2022-10-09T22:17:39.078Z,14.80
2022-10-09T22:20:05.949Z,16.15
2022-10-09T22:22:32.718Z,19.88
2022-10-09T22:25:00.464Z,18.58
2022-10-09T22:27:27.045Z,20.30
2022-10-09T22:29:53.833Z,17.45
2022-10-09T22:32:20.620Z,17.75
2022-10-09T22:34:51.430Z,16.40
2022-10-09T22:37:18.295Z,16.52
2022-10-09T22:39:44.951Z,14.85
2022-10-09T22:42:11.599Z,14.60
2022-10-09T22:44:38.434Z,15.05
2022-10-09T22:47:05.121Z,15.35
2022-10-09T22:49:31.738Z,15.57
2022-10-09T22:51:58.398Z,14.85
2022-10-09T22:54:25.220Z,15.18
2022-10-09T22:56:51.857Z,14.23
2022-10-09T22:59:18.574Z,15.07
2022-10-09T23:01:53.553Z,17.98
2022-10-09T23:04:21.660Z,16.13
2022-10-09T23:06:53.570Z,15.85
2022-10-09T23:09:22.377Z,15.18
2022-10-09T23:11:49.100Z,15.88
2022-10-09T23:14:15.786Z,24.90
2022-10-09T23:16:42.827Z,22.80
2022-10-09T23:19:10.308Z,21.00
2022-10-09T23:21:39.160Z,19.00
2022-10-09T23:24:07.496Z,18.58
2022-10-09T23:26:35.884Z,17.70
2022-10-09T23:29:08.516Z,18.83
2022-10-09T23:31:35.926Z,17.90
2022-10-09T23:34:04.180Z,17.80
2022-10-09T23:36:30.869Z,16.15
2022-10-09T23:38:59.082Z,16.13
2022-10-09T23:41:28.115Z,16.42
2022-10-09T23:43:55.773Z,18.75
2022-10-09T23:46:26.096Z,17.90
2022-10-09T23:48:53.858Z,15.30
2022-10-09T23:51:21.810Z,14.80
2022-10-09T23:53:48.575Z,15.50
2022-10-09T23:56:21.844Z,14.43
2022-10-09T23:58:48.814Z,16.00
